createdAt,value
2019-03-23T00:00:11.652Z,101426.67
2019-03-23T00:05:15.871Z,101416.28
2019-03-23T00:10:18.528Z,101414.72
2019-03-23T00:15:21.132Z,101413.41
2019-03-23T00:20:23.696Z,101408.00
2019-03-23T00:25:26.262Z,101400.88
2019-03-23T00:30:28.849Z,101406.55
2019-03-23T00:35:31.429Z,101398.66
2019-03-23T00:40:33.993Z,101398.16
2019-03-23T00:45:36.609Z,101386.32
2019-03-23T00:50:39.227Z,101386.58
2019-03-23T00:55:41.894Z,101390.63
2019-03-23T01:00:44.458Z,101377.70
2019-03-23T01:05:47.015Z,101386.09
2019-03-23T01:10:49.494Z,101388.02
2019-03-23T01:15:52.068Z,101380.59
2019-03-23T01:20:54.664Z,101371.43
2019-03-23T01:25:59.074Z,101377.05
2019-03-23T01:31:01.651Z,101370.02
2019-03-23T01:36:04.268Z,101362.62
2019-03-23T01:41:06.861Z,101369.19
2019-03-23T01:46:09.481Z,101361.19
2019-03-23T01:51:12.149Z,101367.50
2019-03-23T01:56:14.900Z,101367.50
2019-03-23T02:01:17.550Z,101366.53
2019-03-23T02:06:20.175Z,101359.84
2019-03-23T02:11:22.726Z,101351.14
2019-03-23T02:16:25.373Z,101342.19
2019-03-23T02:21:28.037Z,101343.38
2019-03-23T02:26:30.659Z,101350.16
2019-03-23T02:31:33.279Z,101339.77
2019-03-23T02:36:35.867Z,101337.84
2019-03-23T02:41:38.507Z,101338.12
2019-03-23T02:46:41.067Z,101339.31
2019-03-23T02:51:43.570Z,101341.94
2019-03-23T02:56:46.208Z,101339.66
2019-03-23T03:01:49.821Z,101339.89
2019-03-23T03:06:52.460Z,101341.05
2019-03-23T03:11:54.998Z,101341.48
2019-03-23T03:16:57.566Z,101340.14
2019-03-23T03:22:00.228Z,101336.60
2019-03-23T03:27:02.986Z,101341.97
2019-03-23T03:32:05.630Z,101332.41
2019-03-23T03:37:09.444Z,101336.81
2019-03-23T03:42:12.053Z,101337.73
2019-03-23T03:47:14.560Z,101331.38
2019-03-23T03:52:17.231Z,101339.55
2019-03-23T03:57:19.861Z,101323.89
2019-03-23T04:02:22.474Z,101328.83
2019-03-23T04:07:25.068Z,101335.28
2019-03-23T04:12:27.726Z,101330.50
2019-03-23T04:17:32.224Z,101327.45
2019-03-23T04:22:36.713Z,101323.98
2019-03-23T04:27:39.304Z,101313.99
2019-03-23T04:32:41.911Z,101320.74
2019-03-23T04:37:44.469Z,101322.05
2019-03-23T04:42:47.073Z,101318.91
2019-03-23T04:47:51.485Z,101323.95
2019-03-23T04:52:55.584Z,101319.69
2019-03-23T04:57:58.223Z,101317.47
2019-03-23T05:03:00.836Z,101323.35
2019-03-23T05:08:03.460Z,101322.00
2019-03-23T05:13:06.088Z,101325.03
2019-03-23T05:18:08.703Z,101339.36
2019-03-23T05:23:11.332Z,101337.95
2019-03-23T05:28:13.825Z,101332.63
2019-03-23T05:33:16.389Z,101336.91
2019-03-23T05:38:18.998Z,101342.91
2019-03-23T05:43:21.640Z,101336.95
2019-03-23T05:48:28.765Z,101339.11
2019-03-23T05:53:32.113Z,101335.81
2019-03-23T05:58:34.803Z,101327.91
2019-03-23T06:03:37.377Z,101331.12
2019-03-23T06:08:40.020Z,101349.95
2019-03-23T06:13:42.691Z,101341.41
2019-03-23T06:18:45.362Z,101339.68
2019-03-23T06:23:47.945Z,101342.23
2019-03-23T06:28:50.618Z,101337.77
2019-03-23T06:33:53.332Z,101347.03
2019-03-23T06:39:05.060Z,101345.19
2019-03-23T06:44:00.642Z,101341.72
2019-03-23T06:49:04.930Z,101335.19
2019-03-23T06:54:07.601Z,101339.41
2019-03-23T06:59:10.229Z,101333.70
2019-03-23T07:04:12.869Z,101336.92
2019-03-23T07:09:16.485Z,101335.20
2019-03-23T07:14:21.553Z,101341.53
2019-03-23T07:19:24.127Z,101336.48
2019-03-23T07:24:26.740Z,101337.36
2019-03-23T07:29:29.321Z,101332.25
2019-03-23T07:34:31.926Z,101327.34
2019-03-23T07:39:34.553Z,101325.81
2019-03-23T07:44:37.177Z,101322.69
2019-03-23T07:49:39.843Z,101328.67
2019-03-23T07:54:42.435Z,101328.63
2019-03-23T07:59:45.061Z,101327.84
2019-03-23T08:04:47.734Z,101331.22
2019-03-23T08:09:50.360Z,101332.69
2019-03-23T08:14:52.989Z,101338.70
2019-03-23T08:19:55.539Z,101342.34
2019-03-23T08:24:58.186Z,101345.33
2019-03-23T08:30:00.830Z,101348.03
2019-03-23T08:35:03.998Z,101344.98
2019-03-23T08:40:07.268Z,101345.52
2019-03-23T08:45:09.870Z,101340.75
2019-03-23T08:50:12.491Z,101344.77
2019-03-23T08:55:15.155Z,101337.50
2019-03-23T09:00:17.891Z,101338.67
2019-03-23T09:05:20.612Z,101339.84
2019-03-23T09:10:23.254Z,101334.97
2019-03-23T09:15:25.902Z,101325.13
2019-03-23T09:20:29.514Z,101326.80
2019-03-23T09:25:32.523Z,101334.02
2019-03-23T09:30:35.119Z,101340.89
2019-03-23T09:35:39.445Z,101342.83
2019-03-23T09:40:42.280Z,101355.98
2019-03-23T09:45:44.901Z,101358.48
2019-03-23T09:50:48.569Z,101356.79
2019-03-23T09:55:51.219Z,101368.72
2019-03-23T10:00:53.861Z,101367.00
2019-03-23T10:05:56.475Z,101357.61
2019-03-23T10:10:59.093Z,101358.23
2019-03-23T10:16:01.682Z,101355.16
2019-03-23T10:21:04.334Z,101356.78
2019-03-23T10:26:07.072Z,101359.11
2019-03-23T10:31:09.645Z,101353.91
2019-03-23T10:36:12.390Z,101351.87
2019-03-23T10:41:15.051Z,101348.71
2019-03-23T10:46:17.696Z,101349.81
2019-03-23T10:51:20.333Z,101343.36
2019-03-23T10:56:23.052Z,101341.81
2019-03-23T11:01:25.701Z,101337.98
2019-03-23T11:06:28.323Z,101330.27
2019-03-23T11:11:30.999Z,101328.78
2019-03-23T11:16:33.671Z,101331.31
2019-03-23T11:21:37.607Z,101327.69
2019-03-23T11:26:40.197Z,101329.58
2019-03-23T11:31:42.829Z,101327.08
2019-03-23T11:36:45.408Z,101327.02
2019-03-23T11:41:47.986Z,101329.28
2019-03-23T11:46:50.550Z,101321.41
2019-03-23T11:51:53.024Z,101325.56
2019-03-23T11:56:55.652Z,101326.95
2019-03-23T12:01:58.340Z,101319.98
2019-03-23T12:07:00.962Z,101316.03
2019-03-23T12:12:03.761Z,101314.44
2019-03-23T12:17:06.383Z,101318.66
2019-03-23T12:22:09.073Z,101315.02
2019-03-23T12:27:11.731Z,101304.56
2019-03-23T12:32:14.474Z,101311.34
2019-03-23T12:37:17.110Z,101311.42
2019-03-23T12:42:19.741Z,101310.63
2019-03-23T12:47:22.356Z,101306.67
2019-03-23T12:52:25.010Z,101318.11
2019-03-23T12:57:27.557Z,101307.33
2019-03-23T13:02:30.189Z,101316.25
2019-03-23T13:07:32.839Z,101320.02
2019-03-23T13:12:35.482Z,101328.67
2019-03-23T13:17:38.186Z,101322.10
2019-03-23T13:22:40.894Z,101326.45
2019-03-23T13:27:43.668Z,101322.66
2019-03-23T13:32:46.242Z,101322.03
2019-03-23T13:37:48.871Z,101330.21
2019-03-23T13:42:51.507Z,101333.55
2019-03-23T13:47:54.973Z,101335.20
2019-03-23T13:52:57.908Z,101343.18
2019-03-23T13:58:18.769Z,101336.52
2019-03-23T14:03:21.339Z,101341.16
2019-03-23T14:08:24.015Z,101351.00
2019-03-23T14:13:27.841Z,101355.55
2019-03-23T14:18:30.600Z,101360.83
2019-03-23T14:23:33.309Z,101361.23
2019-03-23T14:28:35.900Z,101369.72
2019-03-23T14:33:40.164Z,101361.60
2019-03-23T14:38:43.062Z,101363.81
2019-03-23T14:43:45.639Z,101366.67
2019-03-23T14:48:48.267Z,101377.38
2019-03-23T14:53:50.874Z,101378.81
2019-03-23T14:58:53.598Z,101384.25
2019-03-23T15:03:56.259Z,101387.78
2019-03-23T15:08:58.871Z,101401.16
2019-03-23T15:14:01.484Z,101402.89
2019-03-23T15:19:04.095Z,101409.71
2019-03-23T15:24:09.194Z,101407.85
2019-03-23T15:29:13.036Z,101412.34
2019-03-23T15:34:17.009Z,101414.84
2019-03-23T15:39:19.659Z,101416.23
2019-03-23T15:44:22.289Z,101434.30
2019-03-23T15:49:24.995Z,101435.42
2019-03-23T15:54:27.637Z,101434.80
2019-03-23T15:59:30.238Z,101432.34
2019-03-23T16:04:32.932Z,101440.33
2019-03-23T16:09:35.653Z,101443.30
2019-03-23T16:14:38.289Z,101449.57
2019-03-23T16:19:40.835Z,101453.55
2019-03-23T16:24:43.283Z,101455.05
2019-03-23T16:29:45.891Z,101461.16
2019-03-23T16:34:48.476Z,101466.50
2019-03-23T16:39:51.090Z,101477.32
2019-03-23T16:44:53.714Z,101479.51
2019-03-23T16:49:56.356Z,101488.73
2019-03-23T16:54:58.963Z,101483.50
2019-03-23T17:00:01.587Z,101491.31
2019-03-23T17:05:05.988Z,101490.62
2019-03-23T17:10:09.095Z,101491.84
2019-03-23T17:15:12.861Z,101496.90
2019-03-23T17:20:15.521Z,101500.23
2019-03-23T17:25:18.152Z,101498.57
2019-03-23T17:30:20.920Z,101499.89
2019-03-23T17:35:23.530Z,101506.60
2019-03-23T17:40:26.154Z,101511.71
2019-03-23T17:45:28.797Z,101520.55
2019-03-23T17:50:31.424Z,101535.97
2019-03-23T17:55:34.248Z,101541.57
2019-03-23T18:00:36.924Z,101555.91
2019-03-23T18:05:39.654Z,101553.15
2019-03-23T18:10:42.261Z,101557.44
2019-03-23T18:15:44.863Z,101562.55
2019-03-23T18:20:47.477Z,101572.22
2019-03-23T18:25:50.961Z,101582.09
2019-03-23T18:30:53.463Z,101591.42
2019-03-23T18:35:56.072Z,101594.11
2019-03-23T18:40:58.673Z,101606.30
2019-03-23T18:46:01.305Z,101610.44
2019-03-23T18:51:04.077Z,101621.17
2019-03-23T18:56:06.744Z,101624.39
2019-03-23T19:01:09.235Z,101630.59
2019-03-23T19:06:11.864Z,101634.41
2019-03-23T19:11:15.095Z,101633.45
2019-03-23T19:16:17.746Z,101646.58
2019-03-23T19:21:20.377Z,101641.55
2019-03-23T19:26:23.027Z,101641.78
2019-03-23T19:31:25.707Z,101652.61
2019-03-23T19:36:28.292Z,101653.66
2019-03-23T19:41:30.919Z,101652.30
2019-03-23T19:46:35.926Z,101652.44
2019-03-23T19:51:38.683Z,101655.16
2019-03-23T19:56:41.279Z,101659.32
2019-03-23T20:01:44.005Z,101656.02
2019-03-23T20:06:46.686Z,101672.62
2019-03-23T20:11:49.319Z,101673.99
2019-03-23T20:16:52.048Z,101682.27
2019-03-23T20:21:54.668Z,101683.12
2019-03-23T20:26:57.364Z,101691.05
2019-03-23T20:32:00.007Z,101692.95
2019-03-23T20:37:02.878Z,101690.64
2019-03-23T20:42:05.510Z,101689.23
2019-03-23T20:47:08.287Z,101691.50
2019-03-23T20:52:10.989Z,101693.48
2019-03-23T20:57:23.457Z,101698.32
2019-03-23T21:02:18.267Z,101693.78
2019-03-23T21:07:20.900Z,101684.64
2019-03-23T21:12:23.525Z,101690.61
2019-03-23T21:17:28.186Z,101699.77
2019-03-23T21:22:30.922Z,101690.83
2019-03-23T21:27:33.788Z,101683.59
2019-03-23T21:32:36.359Z,101685.00
2019-03-23T21:37:39.050Z,101677.40
2019-03-23T21:42:41.765Z,101679.57
2019-03-23T21:47:44.359Z,101674.03
2019-03-23T21:52:46.977Z,101670.59
2019-03-23T21:57:49.787Z,101660.73
2019-03-23T22:02:52.406Z,101660.32
2019-03-23T22:07:55.093Z,101654.02
2019-03-23T22:12:57.860Z,101659.05
2019-03-23T22:18:00.489Z,101653.80
2019-03-23T22:23:03.379Z,101646.28
2019-03-23T22:28:06.031Z,101644.52
2019-03-23T22:33:09.507Z,101642.72
2019-03-23T22:38:12.222Z,101639.27
2019-03-23T22:43:14.798Z,101644.40
2019-03-23T22:48:17.453Z,101640.17
2019-03-23T22:53:21.778Z,101637.55
2019-03-23T22:58:24.228Z,101635.55
2019-03-23T23:03:26.989Z,101635.79
2019-03-23T23:08:29.710Z,101624.47
2019-03-23T23:13:32.313Z,101628.54
2019-03-23T23:18:34.905Z,101622.02
2019-03-23T23:23:37.588Z,101620.02
2019-03-23T23:28:41.436Z,101617.98
2019-03-23T23:33:45.309Z,101613.23
2019-03-23T23:38:47.894Z,101609.52
2019-03-23T23:43:52.654Z,101612.05
2019-03-23T23:48:55.338Z,101610.41
2019-03-23T23:54:00.204Z,101608.83
2019-03-23T23:59:02.832Z,101612.18
